sensor_id;sensor_type;location;lat;lon;timestamp;P1;durP1;ratioP1;P2;durP2;ratioP2
4806;SDS011;2417;52.482;13.432;2022-09-20T00:01:37;6.80;;;3.33;;
4806;SDS011;2417;52.482;13.432;2022-09-20T00:04:06;4.37;;;2.63;;
4806;SDS011;2417;52.482;13.432;2022-09-20T00:06:34;5.27;;;2.40;;
4806;SDS011;2417;52.482;13.432;2022-09-20T00:09:02;9.93;;;3.30;;
4806;SDS011;2417;52.482;13.432;2022-09-20T00:11:30;6.77;;;4.20;;
4806;SDS011;2417;52.482;13.432;2022-09-20T00:13:59;8.33;;;3.87;;
4806;SDS011;2417;52.482;13.432;2022-09-20T00:16:29;12.47;;;3.67;;
4806;SDS011;2417;52.482;13.432;2022-09-20T00:18:59;24.17;;;7.53;;
4806;SDS011;2417;52.482;13.432;2022-09-20T00:21:31;23.60;;;6.77;;
4806;SDS011;2417;52.482;13.432;2022-09-20T00:23:59;18.57;;;5.63;;
4806;SDS011;2417;52.482;13.432;2022-09-20T00:26:27;12.67;;;5.57;;
4806;SDS011;2417;52.482;13.432;2022-09-20T00:28:56;11.80;;;5.63;;
4806;SDS011;2417;52.482;13.432;2022-09-20T00:31:24;11.17;;;5.83;;
4806;SDS011;2417;52.482;13.432;2022-09-20T00:33:52;11.00;;;4.30;;
4806;SDS011;2417;52.482;13.432;2022-09-20T00:36:39;10.20;;;4.67;;
4806;SDS011;2417;52.482;13.432;2022-09-20T00:39:08;10.70;;;4.40;;
4806;SDS011;2417;52.482;13.432;2022-09-20T00:41:37;13.40;;;4.03;;
4806;SDS011;2417;52.482;13.432;2022-09-20T00:46:54;7.27;;;3.83;;
4806;SDS011;2417;52.482;13.432;2022-09-20T00:49:23;11.13;;;4.57;;
4806;SDS011;2417;52.482;13.432;2022-09-20T00:51:55;7.30;;;3.60;;
4806;SDS011;2417;52.482;13.432;2022-09-20T00:54:26;6.73;;;3.40;;
4806;SDS011;2417;52.482;13.432;2022-09-20T00:56:55;6.80;;;4.07;;
4806;SDS011;2417;52.482;13.432;2022-09-20T00:59:24;6.87;;;3.57;;
4806;SDS011;2417;52.482;13.432;2022-09-20T01:01:54;7.60;;;2.80;;
4806;SDS011;2417;52.482;13.432;2022-09-20T01:04:24;9.03;;;3.50;;
4806;SDS011;2417;52.482;13.432;2022-09-20T01:06:55;7.00;;;3.30;;
4806;SDS011;2417;52.482;13.432;2022-09-20T01:09:24;9.10;;;3.87;;
4806;SDS011;2417;52.482;13.432;2022-09-20T01:11:52;9.13;;;5.03;;
4806;SDS011;2417;52.482;13.432;2022-09-20T01:14:20;6.83;;;3.70;;
4806;SDS011;2417;52.482;13.432;2022-09-20T01:16:49;10.27;;;3.70;;
4806;SDS011;2417;52.482;13.432;2022-09-20T01:19:24;8.27;;;4.10;;
4806;SDS011;2417;52.482;13.432;2022-09-20T01:21:58;7.13;;;3.93;;
4806;SDS011;2417;52.482;13.432;2022-09-20T01:24:27;10.30;;;4.80;;
4806;SDS011;2417;52.482;13.432;2022-09-20T01:27:09;6.17;;;3.70;;
4806;SDS011;2417;52.482;13.432;2022-09-20T01:29:48;6.90;;;4.10;;
4806;SDS011;2417;52.482;13.432;2022-09-20T01:32:20;10.20;;;3.63;;
4806;SDS011;2417;52.482;13.432;2022-09-20T01:34:51;6.33;;;3.60;;
4806;SDS011;2417;52.482;13.432;2022-09-20T01:37:22;6.53;;;3.20;;
4806;SDS011;2417;52.482;13.432;2022-09-20T01:39:56;4.97;;;3.23;;
4806;SDS011;2417;52.482;13.432;2022-09-20T01:42:26;4.97;;;3.20;;
4806;SDS011;2417;52.482;13.432;2022-09-20T01:45:01;4.40;;;2.63;;
4806;SDS011;2417;52.482;13.432;2022-09-20T01:47:34;6.93;;;3.23;;
4806;SDS011;2417;52.482;13.432;2022-09-20T01:50:07;8.93;;;3.13;;
4806;SDS011;2417;52.482;13.432;2022-09-20T01:55:33;4.33;;;2.67;;
4806;SDS011;2417;52.482;13.432;2022-09-20T01:58:11;10.40;;;2.70;;
4806;SDS011;2417;52.482;13.432;2022-09-20T02:00:54;5.50;;;2.90;;
4806;SDS011;2417;52.482;13.432;2022-09-20T02:03:30;5.03;;;2.43;;
4806;SDS011;2417;52.482;13.432;2022-09-20T02:06:14;5.20;;;2.40;;
4806;SDS011;2417;52.482;13.432;2022-09-20T02:09:08;3.27;;;2.27;;
4806;SDS011;2417;52.482;13.432;2022-09-20T02:11:40;4.10;;;2.10;;
4806;SDS011;2417;52.482;13.432;2022-09-20T02:14:18;4.20;;;2.20;;
4806;SDS011;2417;52.482;13.432;2022-09-20T02:16:52;9.43;;;2.90;;
4806;SDS011;2417;52.482;13.432;2022-09-20T02:22:08;5.50;;;2.47;;
4806;SDS011;2417;52.482;13.432;2022-09-20T02:24:38;4.20;;;2.67;;
4806;SDS011;2417;52.482;13.432;2022-09-20T02:27:10;6.20;;;2.30;;
4806;SDS011;2417;52.482;13.432;2022-09-20T02:29:42;3.20;;;1.87;;
4806;SDS011;2417;52.482;13.432;2022-09-20T02:32:19;4.20;;;2.03;;
4806;SDS011;2417;52.482;13.432;2022-09-20T02:34:56;6.30;;;2.27;;
4806;SDS011;2417;52.482;13.432;2022-09-20T02:37:35;3.73;;;2.23;;
4806;SDS011;2417;52.482;13.432;2022-09-20T02:40:10;4.97;;;2.53;;
4806;SDS011;2417;52.482;13.432;2022-09-20T02:42:46;2.80;;;2.00;;
4806;SDS011;2417;52.482;13.432;2022-09-20T02:45:18;3.50;;;1.83;;
4806;SDS011;2417;52.482;13.432;2022-09-20T02:47:53;5.30;;;2.23;;
4806;SDS011;2417;52.482;13.432;2022-09-20T02:50:25;5.33;;;2.50;;
4806;SDS011;2417;52.482;13.432;2022-09-20T02:53:01;2.97;;;1.80;;
4806;SDS011;2417;52.482;13.432;2022-09-20T02:55:34;4.00;;;1.90;;
4806;SDS011;2417;52.482;13.432;2022-09-20T02:58:08;6.20;;;2.17;;
4806;SDS011;2417;52.482;13.432;2022-09-20T03:00:45;3.20;;;1.67;;
4806;SDS011;2417;52.482;13.432;2022-09-20T03:03:20;3.03;;;1.73;;
4806;SDS011;2417;52.482;13.432;2022-09-20T03:05:50;5.93;;;2.20;;
4806;SDS011;2417;52.482;13.432;2022-09-20T03:08:24;4.80;;;2.40;;
4806;SDS011;2417;52.482;13.432;2022-09-20T03:11:00;4.10;;;2.07;;
4806;SDS011;2417;52.482;13.432;2022-09-20T03:13:36;8.73;;;2.63;;
4806;SDS011;2417;52.482;13.432;2022-09-20T03:16:09;3.63;;;2.03;;
4806;SDS011;2417;52.482;13.432;2022-09-20T03:18:45;4.17;;;1.70;;
4806;SDS011;2417;52.482;13.432;2022-09-20T03:21:21;6.33;;;2.07;;
4806;SDS011;2417;52.482;13.432;2022-09-20T03:23:54;8.93;;;2.20;;
4806;SDS011;2417;52.482;13.432;2022-09-20T03:26:28;4.53;;;2.30;;
4806;SDS011;2417;52.482;13.432;2022-09-20T03:29:00;3.00;;;1.97;;
4806;SDS011;2417;52.482;13.432;2022-09-20T03:31:37;10.13;;;2.57;;
4806;SDS011;2417;52.482;13.432;2022-09-20T03:34:15;4.20;;;2.40;;
4806;SDS011;2417;52.482;13.432;2022-09-20T03:36:49;5.70;;;2.30;;
4806;SDS011;2417;52.482;13.432;2022-09-20T03:39:24;5.13;;;2.07;;
4806;SDS011;2417;52.482;13.432;2022-09-20T03:42:00;3.47;;;2.00;;
4806;SDS011;2417;52.482;13.432;2022-09-20T03:44:40;3.10;;;1.90;;
4806;SDS011;2417;52.482;13.432;2022-09-20T03:47:14;5.20;;;2.53;;
4806;SDS011;2417;52.482;13.432;2022-09-20T03:49:55;4.20;;;1.67;;
4806;SDS011;2417;52.482;13.432;2022-09-20T03:52:30;3.20;;;2.17;;
4806;SDS011;2417;52.482;13.432;2022-09-20T03:58:09;3.10;;;1.83;;
4806;SDS011;2417;52.482;13.432;2022-09-20T04:00:43;5.10;;;1.87;;
4806;SDS011;2417;52.482;13.432;2022-09-20T04:03:20;6.37;;;2.10;;
4806;SDS011;2417;52.482;13.432;2022-09-20T04:05:55;3.57;;;1.93;;
4806;SDS011;2417;52.482;13.432;2022-09-20T04:08:33;8.77;;;1.77;;
4806;SDS011;2417;52.482;13.432;2022-09-20T04:11:07;7.47;;;2.50;;
4806;SDS011;2417;52.482;13.432;2022-09-20T04:13:38;6.20;;;2.10;;
4806;SDS011;2417;52.482;13.432;2022-09-20T04:16:13;4.43;;;2.47;;
4806;SDS011;2417;52.482;13.432;2022-09-20T04:18:44;4.23;;;2.10;;
4806;SDS011;2417;52.482;13.432;2022-09-20T04:21:18;4.60;;;2.50;;
4806;SDS011;2417;52.482;13.432;2022-09-20T04:23:51;4.73;;;2.30;;
4806;SDS011;2417;52.482;13.432;2022-09-20T04:26:22;7.67;;;2.40;;
4806;SDS011;2417;52.482;13.432;2022-09-20T04:28:52;4.20;;;2.10;;
4806;SDS011;2417;52.482;13.432;2022-09-20T04:31:24;4.33;;;1.90;;
4806;SDS011;2417;52.482;13.432;2022-09-20T04:33:57;6.63;;;2.70;;
4806;SDS011;2417;52.482;13.432;2022-09-20T04:36:31;2.60;;;1.77;;
4806;SDS011;2417;52.482;13.432;2022-09-20T04:41:57;4.93;;;2.17;;
4806;SDS011;2417;52.482;13.432;2022-09-20T04:44:56;4.97;;;2.53;;
4806;SDS011;2417;52.482;13.432;2022-09-20T04:50:22;5.60;;;2.80;;
4806;SDS011;2417;52.482;13.432;2022-09-20T04:55:47;4.67;;;2.73;;
4806;SDS011;2417;52.482;13.432;2022-09-20T05:01:07;4.60;;;2.63;;
4806;SDS011;2417;52.482;13.432;2022-09-20T05:03:50;5.40;;;2.70;;
4806;SDS011;2417;52.482;13.432;2022-09-20T05:06:40;8.70;;;2.87;;
4806;SDS011;2417;52.482;13.432;2022-09-20T05:09:21;5.57;;;2.40;;
4806;SDS011;2417;52.482;13.432;2022-09-20T05:11:56;4.30;;;2.70;;
4806;SDS011;2417;52.482;13.432;2022-09-20T05:14:36;5.00;;;2.80;;
4806;SDS011;2417;52.482;13.432;2022-09-20T05:17:20;5.90;;;2.93;;
4806;SDS011;2417;52.482;13.432;2022-09-20T05:22:40;7.67;;;3.20;;
4806;SDS011;2417;52.482;13.432;2022-09-20T05:25:19;5.53;;;2.70;;
4806;SDS011;2417;52.482;13.432;2022-09-20T05:27:55;7.80;;;2.73;;
4806;SDS011;2417;52.482;13.432;2022-09-20T05:30:25;7.57;;;3.13;;
4806;SDS011;2417;52.482;13.432;2022-09-20T05:32:59;4.50;;;2.70;;
4806;SDS011;2417;52.482;13.432;2022-09-20T05:35:32;4.63;;;2.67;;
4806;SDS011;2417;52.482;13.432;2022-09-20T05:38:04;6.77;;;2.70;;
4806;SDS011;2417;52.482;13.432;2022-09-20T05:40:43;3.53;;;2.50;;
4806;SDS011;2417;52.482;13.432;2022-09-20T05:43:16;13.87;;;3.10;;
4806;SDS011;2417;52.482;13.432;2022-09-20T05:45:47;4.90;;;2.90;;
4806;SDS011;2417;52.482;13.432;2022-09-20T05:48:17;4.23;;;2.70;;
4806;SDS011;2417;52.482;13.432;2022-09-20T05:50:51;4.60;;;2.60;;
4806;SDS011;2417;52.482;13.432;2022-09-20T05:56:12;5.30;;;2.67;;
4806;SDS011;2417;52.482;13.432;2022-09-20T05:58:51;3.40;;;2.57;;
4806;SDS011;2417;52.482;13.432;2022-09-20T06:01:22;6.83;;;2.30;;
4806;SDS011;2417;52.482;13.432;2022-09-20T06:03:52;3.70;;;2.50;;
4806;SDS011;2417;52.482;13.432;2022-09-20T06:06:23;6.07;;;2.40;;
4806;SDS011;2417;52.482;13.432;2022-09-20T06:11:42;5.47;;;2.10;;
4806;SDS011;2417;52.482;13.432;2022-09-20T06:14:18;5.30;;;2.30;;
4806;SDS011;2417;52.482;13.432;2022-09-20T06:16:48;4.53;;;2.10;;
4806;SDS011;2417;52.482;13.432;2022-09-20T06:19:20;11.03;;;2.67;;
4806;SDS011;2417;52.482;13.432;2022-09-20T06:21:51;3.60;;;1.50;;
4806;SDS011;2417;52.482;13.432;2022-09-20T06:24:35;6.00;;;2.13;;
4806;SDS011;2417;52.482;13.432;2022-09-20T06:27:05;7.80;;;2.00;;
4806;SDS011;2417;52.482;13.432;2022-09-20T06:29:37;5.30;;;2.10;;
4806;SDS011;2417;52.482;13.432;2022-09-20T06:32:06;8.70;;;2.10;;
4806;SDS011;2417;52.482;13.432;2022-09-20T06:34:33;5.73;;;2.23;;
4806;SDS011;2417;52.482;13.432;2022-09-20T06:37:05;6.77;;;2.23;;
4806;SDS011;2417;52.482;13.432;2022-09-20T06:39:54;6.63;;;2.10;;
4806;SDS011;2417;52.482;13.432;2022-09-20T06:42:41;3.90;;;2.07;;
4806;SDS011;2417;52.482;13.432;2022-09-20T06:45:11;7.00;;;2.23;;
4806;SDS011;2417;52.482;13.432;2022-09-20T06:47:38;7.00;;;1.90;;
4806;SDS011;2417;52.482;13.432;2022-09-20T06:50:10;12.87;;;2.53;;
4806;SDS011;2417;52.482;13.432;2022-09-20T06:52:41;3.50;;;2.00;;
4806;SDS011;2417;52.482;13.432;2022-09-20T06:55:10;4.93;;;2.00;;
4806;SDS011;2417;52.482;13.432;2022-09-20T06:57:43;5.93;;;2.10;;
4806;SDS011;2417;52.482;13.432;2022-09-20T07:00:13;5.93;;;2.57;;
4806;SDS011;2417;52.482;13.432;2022-09-20T07:02:41;6.17;;;1.93;;
4806;SDS011;2417;52.482;13.432;2022-09-20T07:05:12;5.37;;;2.10;;
4806;SDS011;2417;52.482;13.432;2022-09-20T07:07:40;5.07;;;2.10;;
4806;SDS011;2417;52.482;13.432;2022-09-20T07:10:09;5.30;;;2.17;;
4806;SDS011;2417;52.482;13.432;2022-09-20T07:12:37;7.10;;;2.10;;
4806;SDS011;2417;52.482;13.432;2022-09-20T07:15:05;4.87;;;2.03;;
4806;SDS011;2417;52.482;13.432;2022-09-20T07:17:34;6.77;;;2.30;;
4806;SDS011;2417;52.482;13.432;2022-09-20T07:20:02;7.10;;;2.73;;
4806;SDS011;2417;52.482;13.432;2022-09-20T07:22:30;6.20;;;2.10;;
4806;SDS011;2417;52.482;13.432;2022-09-20T07:24:58;10.50;;;2.00;;
4806;SDS011;2417;52.482;13.432;2022-09-20T07:27:27;4.67;;;2.27;;
4806;SDS011;2417;52.482;13.432;2022-09-20T07:29:55;6.53;;;2.40;;
4806;SDS011;2417;52.482;13.432;2022-09-20T07:32:23;5.50;;;2.40;;
4806;SDS011;2417;52.482;13.432;2022-09-20T07:34:53;4.93;;;2.13;;
4806;SDS011;2417;52.482;13.432;2022-09-20T07:37:20;6.90;;;2.83;;
4806;SDS011;2417;52.482;13.432;2022-09-20T07:39:48;8.40;;;1.93;;
4806;SDS011;2417;52.482;13.432;2022-09-20T07:42:16;5.60;;;1.87;;
4806;SDS011;2417;52.482;13.432;2022-09-20T07:44:43;6.17;;;1.83;;
4806;SDS011;2417;52.482;13.432;2022-09-20T07:47:13;8.53;;;3.90;;
4806;SDS011;2417;52.482;13.432;2022-09-20T07:49:40;8.77;;;3.73;;
4806;SDS011;2417;52.482;13.432;2022-09-20T07:52:09;9.20;;;2.30;;
4806;SDS011;2417;52.482;13.432;2022-09-20T07:54:37;4.50;;;1.50;;
4806;SDS011;2417;52.482;13.432;2022-09-20T07:57:05;5.37;;;2.37;;
4806;SDS011;2417;52.482;13.432;2022-09-20T07:59:32;7.70;;;2.10;;
4806;SDS011;2417;52.482;13.432;2022-09-20T08:02:00;5.77;;;1.60;;
4806;SDS011;2417;52.482;13.432;2022-09-20T08:04:28;5.47;;;1.80;;
4806;SDS011;2417;52.482;13.432;2022-09-20T08:06:55;9.50;;;2.40;;
4806;SDS011;2417;52.482;13.432;2022-09-20T08:09:26;5.67;;;1.53;;
4806;SDS011;2417;52.482;13.432;2022-09-20T08:11:53;6.77;;;2.10;;
4806;SDS011;2417;52.482;13.432;2022-09-20T08:14:22;6.23;;;2.00;;
4806;SDS011;2417;52.482;13.432;2022-09-20T08:16:50;7.67;;;2.10;;
4806;SDS011;2417;52.482;13.432;2022-09-20T08:19:18;11.57;;;1.90;;
4806;SDS011;2417;52.482;13.432;2022-09-20T08:21:47;7.20;;;1.67;;
4806;SDS011;2417;52.482;13.432;2022-09-20T08:24:15;7.17;;;1.97;;
4806;SDS011;2417;52.482;13.432;2022-09-20T08:26:44;6.07;;;2.00;;
4806;SDS011;2417;52.482;13.432;2022-09-20T08:29:12;8.30;;;1.93;;
4806;SDS011;2417;52.482;13.432;2022-09-20T08:31:40;5.20;;;2.10;;
4806;SDS011;2417;52.482;13.432;2022-09-20T08:34:09;11.20;;;2.47;;
4806;SDS011;2417;52.482;13.432;2022-09-20T08:36:37;8.30;;;2.10;;
4806;SDS011;2417;52.482;13.432;2022-09-20T08:39:07;5.10;;;1.80;;
4806;SDS011;2417;52.482;13.432;2022-09-20T08:41:57;5.40;;;1.73;;
4806;SDS011;2417;52.482;13.432;2022-09-20T08:44:28;4.80;;;1.73;;
4806;SDS011;2417;52.482;13.432;2022-09-20T08:47:02;6.47;;;2.37;;
4806;SDS011;2417;52.482;13.432;2022-09-20T08:49:32;5.87;;;2.10;;
4806;SDS011;2417;52.482;13.432;2022-09-20T08:52:00;7.43;;;1.70;;
4806;SDS011;2417;52.482;13.432;2022-09-20T08:54:29;6.40;;;2.07;;
4806;SDS011;2417;52.482;13.432;2022-09-20T08:57:01;7.90;;;2.10;;
4806;SDS011;2417;52.482;13.432;2022-09-20T08:59:30;10.63;;;1.70;;
4806;SDS011;2417;52.482;13.432;2022-09-20T09:01:59;8.97;;;2.77;;
4806;SDS011;2417;52.482;13.432;2022-09-20T09:04:30;6.80;;;2.13;;
4806;SDS011;2417;52.482;13.432;2022-09-20T09:07:00;6.90;;;2.57;;
4806;SDS011;2417;52.482;13.432;2022-09-20T09:09:29;9.20;;;2.20;;
4806;SDS011;2417;52.482;13.432;2022-09-20T09:12:04;4.63;;;1.97;;
4806;SDS011;2417;52.482;13.432;2022-09-20T09:14:32;8.67;;;2.40;;
4806;SDS011;2417;52.482;13.432;2022-09-20T09:17:18;7.50;;;2.47;;
4806;SDS011;2417;52.482;13.432;2022-09-20T09:19:47;8.23;;;2.37;;
4806;SDS011;2417;52.482;13.432;2022-09-20T09:22:16;4.70;;;2.10;;
4806;SDS011;2417;52.482;13.432;2022-09-20T09:24:44;14.50;;;2.07;;
4806;SDS011;2417;52.482;13.432;2022-09-20T09:27:14;5.53;;;2.27;;
4806;SDS011;2417;52.482;13.432;2022-09-20T09:29:49;7.30;;;2.13;;
4806;SDS011;2417;52.482;13.432;2022-09-20T09:32:18;5.30;;;2.20;;
4806;SDS011;2417;52.482;13.432;2022-09-20T09:34:46;7.20;;;2.10;;
4806;SDS011;2417;52.482;13.432;2022-09-20T09:37:21;8.67;;;2.30;;
4806;SDS011;2417;52.482;13.432;2022-09-20T09:40:10;7.20;;;2.23;;
4806;SDS011;2417;52.482;13.432;2022-09-20T09:42:51;9.80;;;2.40;;
4806;SDS011;2417;52.482;13.432;2022-09-20T09:45:26;12.33;;;2.33;;
4806;SDS011;2417;52.482;13.432;2022-09-20T09:47:54;9.17;;;2.00;;
4806;SDS011;2417;52.482;13.432;2022-09-20T09:50:23;5.77;;;3.00;;
4806;SDS011;2417;52.482;13.432;2022-09-20T09:53:01;12.17;;;3.00;;
4806;SDS011;2417;52.482;13.432;2022-09-20T09:55:36;11.40;;;2.20;;
4806;SDS011;2417;52.482;13.432;2022-09-20T09:58:10;7.53;;;1.90;;
4806;SDS011;2417;52.482;13.432;2022-09-20T10:00:41;9.70;;;2.77;;
4806;SDS011;2417;52.482;13.432;2022-09-20T10:03:16;9.30;;;2.23;;
4806;SDS011;2417;52.482;13.432;2022-09-20T10:05:50;9.13;;;2.13;;
4806;SDS011;2417;52.482;13.432;2022-09-20T10:08:25;5.03;;;2.00;;
4806;SDS011;2417;52.482;13.432;2022-09-20T10:10:59;8.77;;;3.17;;
4806;SDS011;2417;52.482;13.432;2022-09-20T10:13:33;6.47;;;2.80;;
4806;SDS011;2417;52.482;13.432;2022-09-20T10:16:08;7.30;;;2.83;;
4806;SDS011;2417;52.482;13.432;2022-09-20T10:18:40;5.93;;;2.27;;
4806;SDS011;2417;52.482;13.432;2022-09-20T10:21:17;7.70;;;2.57;;
4806;SDS011;2417;52.482;13.432;2022-09-20T10:29:22;7.20;;;2.80;;
4806;SDS011;2417;52.482;13.432;2022-09-20T10:31:53;8.53;;;2.70;;
4806;SDS011;2417;52.482;13.432;2022-09-20T10:37:15;6.63;;;2.30;;
4806;SDS011;2417;52.482;13.432;2022-09-20T10:39:46;9.27;;;2.50;;
4806;SDS011;2417;52.482;13.432;2022-09-20T10:42:18;7.13;;;2.57;;
4806;SDS011;2417;52.482;13.432;2022-09-20T10:45:22;7.83;;;2.60;;
4806;SDS011;2417;52.482;13.432;2022-09-20T10:48:16;8.47;;;2.80;;
4806;SDS011;2417;52.482;13.432;2022-09-20T10:50:47;9.50;;;2.83;;
4806;SDS011;2417;52.482;13.432;2022-09-20T10:53:22;6.67;;;2.80;;
4806;SDS011;2417;52.482;13.432;2022-09-20T10:55:57;13.40;;;2.97;;
4806;SDS011;2417;52.482;13.432;2022-09-20T10:58:34;8.10;;;3.50;;
4806;SDS011;2417;52.482;13.432;2022-09-20T11:01:08;7.90;;;4.00;;
4806;SDS011;2417;52.482;13.432;2022-09-20T11:03:44;11.73;;;4.37;;
4806;SDS011;2417;52.482;13.432;2022-09-20T11:06:17;12.10;;;4.37;;
4806;SDS011;2417;52.482;13.432;2022-09-20T11:08:51;7.90;;;3.53;;
4806;SDS011;2417;52.482;13.432;2022-09-20T11:11:21;12.73;;;4.30;;
4806;SDS011;2417;52.482;13.432;2022-09-20T11:13:52;13.93;;;4.10;;
4806;SDS011;2417;52.482;13.432;2022-09-20T11:16:24;9.30;;;3.90;;
4806;SDS011;2417;52.482;13.432;2022-09-20T11:18:55;8.00;;;3.97;;
4806;SDS011;2417;52.482;13.432;2022-09-20T11:21:26;13.73;;;4.90;;
4806;SDS011;2417;52.482;13.432;2022-09-20T11:23:58;17.20;;;4.77;;
4806;SDS011;2417;52.482;13.432;2022-09-20T11:26:27;10.40;;;2.83;;
4806;SDS011;2417;52.482;13.432;2022-09-20T11:29:00;5.63;;;2.30;;
4806;SDS011;2417;52.482;13.432;2022-09-20T11:31:31;11.53;;;2.70;;
4806;SDS011;2417;52.482;13.432;2022-09-20T11:34:04;8.03;;;1.87;;
4806;SDS011;2417;52.482;13.432;2022-09-20T11:36:35;6.30;;;1.77;;
4806;SDS011;2417;52.482;13.432;2022-09-20T11:39:09;7.33;;;1.90;;
4806;SDS011;2417;52.482;13.432;2022-09-20T11:41:38;8.40;;;1.73;;
4806;SDS011;2417;52.482;13.432;2022-09-20T11:44:06;5.03;;;2.13;;
4806;SDS011;2417;52.482;13.432;2022-09-20T11:46:39;4.50;;;1.70;;
4806;SDS011;2417;52.482;13.432;2022-09-20T11:49:10;6.17;;;3.17;;
4806;SDS011;2417;52.482;13.432;2022-09-20T11:51:58;6.93;;;1.87;;
4806;SDS011;2417;52.482;13.432;2022-09-20T11:54:36;2.97;;;1.60;;
4806;SDS011;2417;52.482;13.432;2022-09-20T11:57:10;3.63;;;1.90;;
4806;SDS011;2417;52.482;13.432;2022-09-20T11:59:39;8.93;;;2.77;;
4806;SDS011;2417;52.482;13.432;2022-09-20T12:02:14;6.60;;;3.30;;
4806;SDS011;2417;52.482;13.432;2022-09-20T12:04:44;5.43;;;3.10;;
4806;SDS011;2417;52.482;13.432;2022-09-20T12:07:15;9.80;;;2.70;;
4806;SDS011;2417;52.482;13.432;2022-09-20T12:09:44;5.70;;;3.00;;
4806;SDS011;2417;52.482;13.432;2022-09-20T12:12:22;10.10;;;6.20;;
4806;SDS011;2417;52.482;13.432;2022-09-20T12:14:53;10.03;;;7.57;;
4806;SDS011;2417;52.482;13.432;2022-09-20T12:22:51;14.23;;;10.87;;
4806;SDS011;2417;52.482;13.432;2022-09-20T12:25:34;36.50;;;11.50;;
4806;SDS011;2417;52.482;13.432;2022-09-20T12:28:02;256.97;;;24.93;;
4806;SDS011;2417;52.482;13.432;2022-09-20T12:30:30;72.93;;;12.23;;
4806;SDS011;2417;52.482;13.432;2022-09-20T12:32:58;23.73;;;12.53;;
4806;SDS011;2417;52.482;13.432;2022-09-20T12:38:26;11.50;;;7.50;;
4806;SDS011;2417;52.482;13.432;2022-09-20T12:40:57;14.30;;;6.23;;
4806;SDS011;2417;52.482;13.432;2022-09-20T12:43:25;10.90;;;6.63;;
4806;SDS011;2417;52.482;13.432;2022-09-20T12:45:54;16.77;;;5.27;;
4806;SDS011;2417;52.482;13.432;2022-09-20T12:48:31;10.80;;;5.23;;
4806;SDS011;2417;52.482;13.432;2022-09-20T12:51:02;13.80;;;5.20;;
4806;SDS011;2417;52.482;13.432;2022-09-20T12:53:59;8.10;;;4.00;;
4806;SDS011;2417;52.482;13.432;2022-09-20T12:56:27;8.23;;;4.10;;
4806;SDS011;2417;52.482;13.432;2022-09-20T12:58:56;7.23;;;3.10;;
4806;SDS011;2417;52.482;13.432;2022-09-20T13:01:27;5.23;;;2.80;;
4806;SDS011;2417;52.482;13.432;2022-09-20T13:06:38;11.43;;;2.87;;
4806;SDS011;2417;52.482;13.432;2022-09-20T13:09:07;6.57;;;3.30;;
4806;SDS011;2417;52.482;13.432;2022-09-20T13:11:37;7.97;;;3.10;;
4806;SDS011;2417;52.482;13.432;2022-09-20T13:14:09;10.47;;;4.90;;
4806;SDS011;2417;52.482;13.432;2022-09-20T13:16:39;4.80;;;2.80;;
4806;SDS011;2417;52.482;13.432;2022-09-20T13:19:13;6.30;;;3.23;;
4806;SDS011;2417;52.482;13.432;2022-09-20T13:21:44;6.13;;;2.90;;
4806;SDS011;2417;52.482;13.432;2022-09-20T13:24:15;5.00;;;2.27;;
4806;SDS011;2417;52.482;13.432;2022-09-20T13:26:45;3.93;;;2.00;;
4806;SDS011;2417;52.482;13.432;2022-09-20T13:29:18;5.20;;;1.90;;
4806;SDS011;2417;52.482;13.432;2022-09-20T13:31:48;6.03;;;2.53;;
4806;SDS011;2417;52.482;13.432;2022-09-20T13:34:17;5.00;;;2.50;;
4806;SDS011;2417;52.482;13.432;2022-09-20T13:36:47;3.97;;;2.03;;
4806;SDS011;2417;52.482;13.432;2022-09-20T13:39:25;3.77;;;1.80;;
4806;SDS011;2417;52.482;13.432;2022-09-20T13:41:57;8.20;;;1.27;;
4806;SDS011;2417;52.482;13.432;2022-09-20T13:44:28;9.03;;;1.40;;
4806;SDS011;2417;52.482;13.432;2022-09-20T13:46:58;6.23;;;1.60;;
4806;SDS011;2417;52.482;13.432;2022-09-20T13:49:29;3.30;;;1.00;;
4806;SDS011;2417;52.482;13.432;2022-09-20T13:51:57;5.33;;;2.00;;
4806;SDS011;2417;52.482;13.432;2022-09-20T13:54:27;5.90;;;1.77;;
4806;SDS011;2417;52.482;13.432;2022-09-20T13:56:55;3.40;;;1.30;;
4806;SDS011;2417;52.482;13.432;2022-09-20T13:59:24;3.10;;;1.10;;
4806;SDS011;2417;52.482;13.432;2022-09-20T14:01:53;5.70;;;1.53;;
4806;SDS011;2417;52.482;13.432;2022-09-20T14:04:21;3.80;;;1.20;;
4806;SDS011;2417;52.482;13.432;2022-09-20T14:06:50;3.60;;;0.90;;
4806;SDS011;2417;52.482;13.432;2022-09-20T14:09:20;4.00;;;0.97;;
4806;SDS011;2417;52.482;13.432;2022-09-20T14:11:51;2.23;;;0.80;;
4806;SDS011;2417;52.482;13.432;2022-09-20T14:14:19;3.07;;;0.90;;
4806;SDS011;2417;52.482;13.432;2022-09-20T14:16:47;3.60;;;0.80;;
4806;SDS011;2417;52.482;13.432;2022-09-20T14:19:17;5.60;;;1.10;;
4806;SDS011;2417;52.482;13.432;2022-09-20T14:21:46;3.70;;;0.87;;
4806;SDS011;2417;52.482;13.432;2022-09-20T14:24:27;5.10;;;1.00;;
4806;SDS011;2417;52.482;13.432;2022-09-20T14:27:11;4.83;;;1.00;;
4806;SDS011;2417;52.482;13.432;2022-09-20T14:29:41;2.97;;;1.00;;
4806;SDS011;2417;52.482;13.432;2022-09-20T14:32:10;2.67;;;0.77;;
4806;SDS011;2417;52.482;13.432;2022-09-20T14:34:42;3.70;;;1.10;;
4806;SDS011;2417;52.482;13.432;2022-09-20T14:37:12;4.30;;;0.90;;
4806;SDS011;2417;52.482;13.432;2022-09-20T14:39:45;2.70;;;1.00;;
4806;SDS011;2417;52.482;13.432;2022-09-20T14:42:17;4.57;;;1.43;;
4806;SDS011;2417;52.482;13.432;2022-09-20T14:44:49;3.30;;;1.30;;
4806;SDS011;2417;52.482;13.432;2022-09-20T14:47:22;6.77;;;1.90;;
4806;SDS011;2417;52.482;13.432;2022-09-20T14:49:51;4.00;;;1.20;;
4806;SDS011;2417;52.482;13.432;2022-09-20T14:52:28;6.80;;;1.10;;
4806;SDS011;2417;52.482;13.432;2022-09-20T14:54:58;4.90;;;1.40;;
4806;SDS011;2417;52.482;13.432;2022-09-20T14:57:28;3.03;;;0.90;;
4806;SDS011;2417;52.482;13.432;2022-09-20T14:59:57;5.17;;;1.13;;
4806;SDS011;2417;52.482;13.432;2022-09-20T15:02:31;4.10;;;1.43;;
4806;SDS011;2417;52.482;13.432;2022-09-20T15:05:02;3.30;;;1.10;;
4806;SDS011;2417;52.482;13.432;2022-09-20T15:07:30;4.27;;;1.10;;
4806;SDS011;2417;52.482;13.432;2022-09-20T15:09:58;4.83;;;1.50;;
4806;SDS011;2417;52.482;13.432;2022-09-20T15:12:28;2.70;;;1.10;;
4806;SDS011;2417;52.482;13.432;2022-09-20T15:14:55;4.00;;;1.20;;
4806;SDS011;2417;52.482;13.432;2022-09-20T15:17:23;5.70;;;1.40;;
4806;SDS011;2417;52.482;13.432;2022-09-20T15:19:50;3.20;;;1.20;;
4806;SDS011;2417;52.482;13.432;2022-09-20T15:22:19;5.73;;;1.40;;
4806;SDS011;2417;52.482;13.432;2022-09-20T15:25:05;4.20;;;1.50;;
4806;SDS011;2417;52.482;13.432;2022-09-20T15:27:34;5.13;;;1.60;;
4806;SDS011;2417;52.482;13.432;2022-09-20T15:30:02;3.73;;;1.60;;
4806;SDS011;2417;52.482;13.432;2022-09-20T15:32:30;3.60;;;1.33;;
4806;SDS011;2417;52.482;13.432;2022-09-20T15:34:58;3.63;;;1.40;;
4806;SDS011;2417;52.482;13.432;2022-09-20T15:37:25;4.00;;;1.40;;
4806;SDS011;2417;52.482;13.432;2022-09-20T15:39:53;6.57;;;1.73;;
4806;SDS011;2417;52.482;13.432;2022-09-20T15:42:21;3.87;;;1.67;;
4806;SDS011;2417;52.482;13.432;2022-09-20T15:44:52;5.40;;;1.53;;
4806;SDS011;2417;52.482;13.432;2022-09-20T15:47:19;4.00;;;1.47;;
4806;SDS011;2417;52.482;13.432;2022-09-20T15:49:47;3.93;;;1.47;;
4806;SDS011;2417;52.482;13.432;2022-09-20T15:52:15;5.63;;;1.90;;
4806;SDS011;2417;52.482;13.432;2022-09-20T15:54:44;6.97;;;1.70;;
4806;SDS011;2417;52.482;13.432;2022-09-20T15:57:11;2.60;;;1.17;;
4806;SDS011;2417;52.482;13.432;2022-09-20T15:59:40;4.70;;;1.10;;
4806;SDS011;2417;52.482;13.432;2022-09-20T16:02:09;5.53;;;1.33;;
4806;SDS011;2417;52.482;13.432;2022-09-20T16:04:38;2.50;;;1.17;;
4806;SDS011;2417;52.482;13.432;2022-09-20T16:07:06;3.37;;;1.50;;
4806;SDS011;2417;52.482;13.432;2022-09-20T16:09:35;4.23;;;1.50;;
4806;SDS011;2417;52.482;13.432;2022-09-20T16:12:03;2.67;;;1.10;;
4806;SDS011;2417;52.482;13.432;2022-09-20T16:14:31;3.50;;;1.30;;
4806;SDS011;2417;52.482;13.432;2022-09-20T16:16:58;2.93;;;1.20;;
4806;SDS011;2417;52.482;13.432;2022-09-20T16:19:28;4.30;;;1.37;;
4806;SDS011;2417;52.482;13.432;2022-09-20T16:21:56;3.83;;;1.87;;